Time;durP1;ratioP1;P1;durP2;ratioP2;P2;SDS_P1;SDS_P2;PMS_P1;PMS_P2;Temp;Humidity;BMP_temperature;BMP_pressure;BME280_temperature;BME280_humidity;BME280_pressure;Samples;Min_cycle;Max_cycle;Signal;HPM_P1;HPM_P2
2022/02/09 00:01:10;;;;;;;19.17;4.25;;;;;;;3.93;79.96;101405.35;1737120;81;21738;-90
2022/02/09 00:03:25;;;;;;;20.32;3.98;;;;;;;3.95;80.16;101403.33;1734321;80;20965;-90
2022/02/09 00:06:03;;;;;;;17.57;4.50;;;;;;;3.96;80.17;101409.05;1736940;82;20969;-90
2022/02/09 00:08:27;;;;;;;26.55;4.58;;;;;;;3.98;80.29;101420.46;1736659;80;20970;-90
2022/02/09 00:10:59;;;;;;;22.00;5.03;;;;;;;3.99;80.31;101419.64;1737083;81;21033;-90
2022/02/09 00:18:58;;;;;;;26.73;5.47;;;;;;;3.99;80.38;101414.84;1638390;87;21028;-91
2022/02/09 00:21:33;;;;;;;19.85;4.90;;;;;;;3.98;80.43;101412.65;1704735;82;20983;-91
2022/02/09 00:34:46;;;;;;;20.25;4.62;;;;;;;4.04;80.92;101427.34;1736501;82;20985;-87
2022/02/09 00:40:05;;;;;;;18.82;3.83;;;;;;;4.07;80.83;101436.67;1736369;82;22641;-88
2022/02/09 00:45:08;;;;;;;15.15;4.33;;;;;;;4.11;80.99;101434.23;1736355;82;21017;-87
2022/02/09 01:44:36;;;;;;;25.12;4.05;;;;;;;4.32;81.54;101448.60;1749920;82;21020;-86
2022/02/09 01:57:18;;;;;;;19.10;4.03;;;;;;;4.61;82.06;101455.56;1693466;84;21045;-88
2022/02/09 01:59:46;;;;;;;25.68;4.90;;;;;;;4.73;81.97;101457.11;1693743;83;21820;-88
2022/02/09 02:02:13;;;;;;;16.30;3.87;;;;;;;4.81;81.89;101459.38;1716556;82;20971;-88
2022/02/09 02:04:40;;;;;;;18.98;4.03;;;;;;;4.89;81.89;101452.00;1750485;82;21044;-88
2022/02/09 02:07:18;;;;;;;28.40;5.60;;;;;;;5.00;81.88;101457.86;1750571;82;21005;-88
2022/02/09 02:09:37;;;;;;;26.95;5.40;;;;;;;5.10;81.86;101451.47;1749080;80;21060;-88
2022/02/09 02:12:13;;;;;;;25.50;7.20;;;;;;;5.21;81.82;101460.41;1750497;82;22595;-88
2022/02/09 02:14:44;;;;;;;27.40;5.55;;;;;;;5.31;81.68;101457.95;1749663;80;20972;-87
2022/02/09 02:17:18;;;;;;;22.32;6.08;;;;;;;5.39;81.56;101454.05;1750599;80;21000;-87
2022/02/09 02:19:42;;;;;;;23.83;5.47;;;;;;;5.46;81.38;101453.97;1734096;80;21475;-87
2022/02/09 02:33:21;;;;;;;19.42;4.35;;;;;;;5.81;80.74;101452.45;1736956;81;21464;-87
2022/02/09 02:43:56;;;;;;;23.90;4.67;;;;;;;6.03;80.19;101475.07;1736599;82;20998;-89
2022/02/09 02:57:05;;;;;;;16.23;3.67;;;;;;;6.23;79.57;101490.93;1737216;82;21010;-89
2022/02/09 03:12:57;;;;;;;16.32;3.35;;;;;;;6.14;78.81;101486.54;1737019;82;20970;-88
2022/02/09 03:17:45;;;;;;;16.82;3.85;;;;;;;5.96;78.52;101489.91;1752557;81;22623;-89
2022/02/09 03:22:54;;;;;;;16.80;3.52;;;;;;;5.80;78.44;101492.44;1749997;82;20989;-89
2022/02/09 03:44:20;;;;;;;16.65;3.45;;;;;;;5.40;78.12;101492.80;1708174;81;22482;-87
2022/02/09 03:47:05;;;;;;;18.50;4.00;;;;;;;5.43;78.23;101494.30;1747258;80;21004;-88
2022/02/09 03:49:16;;;;;;;18.52;3.10;;;;;;;5.48;78.20;101496.77;1746781;80;20989;-87
2022/02/09 03:54:13;;;;;;;16.25;3.50;;;;;;;5.55;78.03;101497.59;1749721;82;21088;-89
2022/02/09 03:56:56;;;;;;;13.98;3.70;;;;;;;5.59;77.92;101499.59;1748700;80;21751;-88
2022/02/09 03:59:13;;;;;;;17.75;3.00;;;;;;;5.62;77.82;101498.44;1747862;81;21024;-88
2022/02/09 04:01:41;;;;;;;19.32;3.55;;;;;;;5.61;77.63;101497.96;1749670;80;21048;-88
2022/02/09 04:04:08;;;;;;;14.28;3.12;;;;;;;5.55;77.41;101501.50;1749690;82;20969;-88
2022/02/09 04:06:36;;;;;;;15.78;3.22;;;;;;;5.49;77.34;101502.47;1750288;82;21020;-89
2022/02/09 04:09:06;;;;;;;18.70;3.30;;;;;;;5.41;77.22;101504.64;1750633;82;21803;-89
2022/02/09 04:11:39;;;;;;;17.20;3.60;;;;;;;5.29;77.18;101497.80;1750546;82;21392;-89
2022/02/09 04:16:51;;;;;;;17.55;3.15;;;;;;;5.07;77.21;101503.08;1749089;80;21247;-89
2022/02/09 04:19:24;;;;;;;27.90;3.80;;;;;;;4.95;77.21;101497.13;1730546;81;21012;-88
2022/02/09 04:48:49;;;;;;;56.08;21.97;;;;;;;3.97;78.08;101494.59;1726281;83;21854;-87
2022/02/09 04:51:16;;;;;;;38.30;14.20;;;;;;;3.88;78.15;101489.69;1723041;83;20966;-85
2022/02/09 05:21:20;;;;;;;23.62;5.65;;;;;;;3.36;79.02;101512.34;1737483;82;21007;-86
2022/02/09 05:23:37;;;;;;;19.42;5.28;;;;;;;3.34;79.17;101511.34;1734666;82;21162;-85
2022/02/09 05:26:08;;;;;;;24.95;5.08;;;;;;;3.36;79.37;101512.34;1738014;81;21555;-83
2022/02/09 05:28:32;;;;;;;17.77;5.03;;;;;;;3.39;79.49;101513.44;1709275;82;21752;-85
2022/02/09 05:30:59;;;;;;;24.80;5.67;;;;;;;3.43;79.60;101521.95;1693857;84;21030;-85
2022/02/09 05:33:25;;;;;;;22.48;4.58;;;;;;;3.50;79.70;101526.77;1709455;84;20966;-84
2022/02/09 05:35:52;;;;;;;18.82;5.05;;;;;;;3.57;79.76;101531.09;1709287;84;20994;-85
2022/02/09 05:38:19;;;;;;;24.82;5.33;;;;;;;3.63;79.87;101534.09;1693861;84;20995;-88
2022/02/09 05:40:46;;;;;;;19.10;4.80;;;;;;;3.74;80.03;101535.69;1709563;84;21928;-91
2022/02/09 05:43:13;;;;;;;19.25;5.53;;;;;;;3.87;80.12;101546.51;1694007;84;21038;-91
2022/02/09 05:50:54;;;;;;;21.15;4.17;;;;;;;4.26;80.05;101526.38;1706696;84;21058;-87
2022/02/09 05:53:24;;;;;;;24.92;4.28;;;;;;;4.36;79.91;101518.77;1711722;83;22540;-88
2022/02/09 05:55:51;;;;;;;18.37;3.92;;;;;;;4.44;79.77;101518.82;1746194;81;20952;-88
2022/02/09 05:58:33;;;;;;;25.08;3.75;;;;;;;4.52;79.69;101514.97;1745559;82;20986;-87
2022/02/09 06:00:49;;;;;;;11.85;3.15;;;;;;;4.55;79.46;101514.28;1738898;82;21155;-88
2022/02/09 06:03:15;;;;;;;16.55;3.83;;;;;;;4.56;79.35;101509.16;1699161;84;21043;-89
2022/02/09 06:05:42;;;;;;;15.93;4.03;;;;;;;4.57;79.32;101503.54;1752029;81;21790;-88
2022/02/09 06:08:10;;;;;;;16.97;3.87;;;;;;;4.59;79.27;101508.03;1691108;83;21569;-88
2022/02/09 06:10:37;;;;;;;12.60;3.33;;;;;;;4.59;79.16;101504.53;1687123;85;20968;-90
2022/02/09 06:13:16;;;;;;;29.65;4.25;;;;;;;4.56;79.01;101507.86;1755731;81;20956;-91
2022/02/09 06:21:08;;;;;;;23.67;4.03;;;;;;;4.42;78.96;101503.08;1760744;81;20989;-90
2022/02/09 06:23:35;;;;;;;19.45;3.77;;;;;;;4.41;79.07;101500.38;1732735;81;20977;-87
2022/02/09 06:26:06;;;;;;;14.05;3.45;;;;;;;4.39;79.15;101513.34;1760887;81;20977;-90
2022/02/09 06:28:33;;;;;;;16.62;3.47;;;;;;;4.43;79.22;101515.70;1760207;79;20957;-90
2022/02/09 06:31:00;;;;;;;17.30;3.67;;;;;;;4.49;79.38;101526.53;1760268;81;21782;-88
2022/02/09 06:33:26;;;;;;;18.23;3.15;;;;;;;4.55;79.41;101513.87;1760438;81;20959;-91
2022/02/09 06:35:55;;;;;;;16.40;3.55;;;;;;;4.60;79.33;101516.77;1760175;81;21486;-88
2022/02/09 06:38:21;;;;;;;18.00;3.83;;;;;;;4.63;79.27;101517.83;1759960;81;21000;-88
2022/02/09 06:40:53;;;;;;;11.43;3.87;;;;;;;4.67;79.27;101515.02;1759925;81;20988;-88
2022/02/09 06:43:17;;;;;;;17.95;4.42;;;;;;;4.71;79.25;101506.97;1759348;80;21600;-88
2022/02/09 06:45:43;;;;;;;12.70;3.60;;;;;;;4.78;79.33;101516.56;1759801;81;21431;-88
2022/02/09 06:48:15;;;;;;;16.07;3.85;;;;;;;4.83;79.25;101511.23;1759959;81;21016;-88
2022/02/09 06:50:50;;;;;;;12.47;3.62;;;;;;;4.90;79.22;101505.06;1760028;81;21007;-89
2022/02/09 06:56:01;;;;;;;16.07;4.80;;;;;;;4.95;79.09;101495.81;1760088;81;21751;-88
2022/02/09 06:58:43;;;;;;;20.02;4.60;;;;;;;4.94;78.99;101503.17;1759926;81;20960;-88
2022/02/09 07:01:01;;;;;;;21.67;4.73;;;;;;;4.95;79.07;101498.02;1758172;80;21075;-88
2022/02/09 07:03:27;;;;;;;21.95;4.97;;;;;;;4.94;78.98;101485.80;1760070;81;21438;-87
2022/02/09 07:05:54;;;;;;;23.38;5.00;;;;;;;4.94;78.96;101483.59;1760033;81;20992;-87
2022/02/09 07:08:21;;;;;;;18.95;5.17;;;;;;;4.93;78.98;101484.39;1759984;81;22415;-89
2022/02/09 07:10:48;;;;;;;22.35;5.25;;;;;;;4.97;79.17;101470.72;1759894;81;20997;-91
2022/02/09 07:13:15;;;;;;;31.00;10.35;;;;;;;5.08;79.37;101476.58;1760032;81;20968;-89
2022/02/09 07:15:49;;;;;;;27.60;8.83;;;;;;;5.26;79.60;101482.88;1760078;81;20981;-88
2022/02/09 07:18:14;;;;;;;23.15;8.13;;;;;;;5.45;79.68;101483.53;1749153;80;21534;-90
2022/02/09 07:23:24;;;;;;;25.72;6.47;;;;;;;5.79;79.51;101485.44;1744255;80;77948;-82
2022/02/09 07:26:03;;;;;;;21.20;5.35;;;;;;;5.91;79.35;101480.91;1705205;80;21023;-81
2022/02/09 07:28:18;;;;;;;15.85;4.87;;;;;;;6.05;79.23;101477.78;1716678;82;21488;-82
2022/02/09 07:30:44;;;;;;;25.37;6.30;;;;;;;6.15;79.11;101473.94;1706984;83;21694;-82
2022/02/09 07:33:13;;;;;;;22.45;5.78;;;;;;;6.25;78.94;101472.72;1740329;81;23077;-82
2022/02/09 07:35:39;;;;;;;25.48;6.90;;;;;;;6.30;78.79;101470.84;1726726;81;21002;-82
2022/02/09 07:38:06;;;;;;;26.00;7.95;;;;;;;6.42;78.90;101471.94;1726353;82;21038;-82
2022/02/09 07:40:33;;;;;;;21.23;8.33;;;;;;;6.53;78.76;101466.86;1744047;80;20976;-82
2022/02/09 07:43:08;;;;;;;25.55;8.88;;;;;;;6.60;78.54;101470.68;1726592;83;21148;-82
2022/02/09 07:45:46;;;;;;;43.42;14.53;;;;;;;6.66;78.40;101464.45;1725663;81;21912;-82
2022/02/09 07:48:13;;;;;;;56.77;17.92;;;;;;;6.71;78.22;101457.75;1724228;81;20987;-82
2022/02/09 07:50:39;;;;;;;53.95;17.92;;;;;;;6.74;78.15;101450.08;1764788;80;20999;-82
2022/02/09 07:53:09;;;;;;;42.93;13.50;;;;;;;6.79;78.14;101456.45;1728237;81;21591;-82
2022/02/09 07:55:30;;;;;;;47.43;12.78;;;;;;;6.85;78.02;101455.88;1740591;81;21010;-82
2022/02/09 07:58:00;;;;;;;36.85;10.48;;;;;;;6.89;78.00;101456.89;1749876;81;22477;-82
2022/02/09 08:00:27;;;;;;;27.13;8.80;;;;;;;6.92;77.96;101450.52;1731863;81;21074;-82
2022/02/09 08:02:53;;;;;;;23.32;6.58;;;;;;;6.96;77.88;101448.16;1718066;83;20995;-83
2022/02/09 08:05:20;;;;;;;24.30;7.00;;;;;;;7.01;77.82;101447.06;1726691;82;21074;-83
2022/02/09 08:07:47;;;;;;;21.00;6.20;;;;;;;7.03;77.73;101446.73;1726765;83;21002;-82
2022/02/09 08:10:24;;;;;;;20.72;6.33;;;;;;;7.04;77.62;101453.77;1733368;80;21781;-82
2022/02/09 08:20:24;;;;;;;23.50;6.20;;;;;;;7.06;77.60;101460.37;1756354;80;20956;-82
2022/02/09 08:24:05;;;;;;;20.30;4.75;;;;;;;7.22;77.55;101445.92;1747135;80;23213;-83
2022/02/09 08:29:04;;;;;;;21.73;5.58;;;;;;;7.34;77.49;101436.48;1742857;81;21003;-83
2022/02/09 08:33:47;;;;;;;23.65;7.85;;;;;;;7.40;77.50;101431.55;1744660;82;20991;-83
2022/02/09 08:36:14;;;;;;;24.82;7.42;;;;;;;7.41;77.51;101428.08;1769564;80;22665;-83
2022/02/09 08:38:43;;;;;;;17.75;4.72;;;;;;;7.45;77.49;101426.52;1733728;81;21935;-83
2022/02/09 08:41:11;;;;;;;13.88;4.33;;;;;;;7.47;77.52;101426.17;1743167;81;20981;-83
2022/02/09 08:43:38;;;;;;;19.27;4.85;;;;;;;7.49;77.55;101421.90;1766841;80;20981;-83
2022/02/09 08:46:05;;;;;;;17.00;4.80;;;;;;;7.57;77.60;101424.50;1747044;82;20975;-83
2022/02/09 08:48:32;;;;;;;16.40;4.37;;;;;;;7.63;77.67;101431.33;1776771;80;21687;-83
2022/02/09 08:50:58;;;;;;;15.55;4.30;;;;;;;7.76;77.80;101423.22;1767667;80;21006;-83
2022/02/09 08:53:25;;;;;;;19.60;4.58;;;;;;;7.85;77.71;101416.22;1761373;80;21017;-83
2022/02/09 08:55:52;;;;;;;15.23;4.58;;;;;;;7.87;77.55;101413.67;1765085;80;20998;-83
2022/02/09 08:58:21;;;;;;;16.50;4.72;;;;;;;7.89;77.54;101417.26;1765356;81;21033;-83
2022/02/09 09:00:48;;;;;;;11.45;3.83;;;;;;;7.94;77.57;101410.52;1769966;79;21710;-83
2022/02/09 09:03:23;;;;;;;14.07;4.53;;;;;;;8.02;77.71;101412.17;1769245;79;20950;-83
2022/02/09 09:05:48;;;;;;;11.18;4.45;;;;;;;8.03;77.52;101413.95;1768727;80;20978;-83
2022/02/09 10:03:09;;;;;;;9.95;7.85;;;;;;;9.02;77.86;101335.17;1721240;82;20956;-83
2022/02/09 10:05:49;;;;;;;14.28;6.25;;;;;;;9.01;77.67;101332.97;1720246;82;20987;-83
2022/02/09 10:33:11;;;;;;;7.65;5.33;;;;;;;9.34;78.38;101322.89;1723437;81;21066;-83
2022/02/09 10:35:41;;;;;;;7.17;5.83;;;;;;;9.50;78.14;101320.88;1729365;81;21839;-83
2022/02/09 10:38:33;;;;;;;4.72;3.35;;;;;;;9.56;77.98;101321.53;1730306;82;21013;-83
2022/02/09 10:41:13;;;;;;;5.08;2.83;;;;;;;9.59;77.86;101309.80;1728820;80;21445;-83
2022/02/09 10:43:42;;;;;;;3.67;2.90;;;;;;;9.64;77.95;101312.20;1724356;83;21151;-83
2022/02/09 10:46:23;;;;;;;2.98;2.58;;;;;;;9.71;77.98;101312.91;1724288;81;21007;-83
2022/02/09 10:48:55;;;;;;;3.37;2.35;;;;;;;9.78;78.00;101300.88;1741775;81;21612;-83
2022/02/09 10:51:29;;;;;;;2.35;1.77;;;;;;;9.92;78.08;101299.66;1777238;79;21011;-81
2022/02/09 10:54:25;;;;;;;3.10;2.10;;;;;;;10.05;77.98;101293.99;1769227;79;21026;-83
2022/02/09 10:57:00;;;;;;;3.20;1.95;;;;;;;10.12;77.79;101287.23;1763361;79;21468;-82
2022/02/09 10:59:29;;;;;;;2.60;2.02;;;;;;;10.21;77.67;101282.69;1761249;81;20998;-83
2022/02/09 11:01:59;;;;;;;2.35;1.80;;;;;;;10.20;77.45;101283.12;1758739;79;21716;-82
2022/02/09 11:04:26;;;;;;;2.67;1.87;;;;;;;10.21;77.58;101278.35;1756132;80;21068;-82
2022/02/09 11:06:53;;;;;;;4.50;1.90;;;;;;;10.30;77.80;101281.70;1742907;80;21543;-82
2022/02/09 11:09:20;;;;;;;2.62;1.45;;;;;;;10.40;77.79;101288.20;1756806;79;21035;-82
2022/02/09 11:11:47;;;;;;;2.45;1.40;;;;;;;10.48;77.69;101282.80;1755551;80;20951;-82
2022/02/09 11:14:20;;;;;;;2.62;1.67;;;;;;;10.53;77.63;101287.80;1759473;79;21709;-82
2022/02/09 11:16:53;;;;;;;3.12;1.52;;;;;;;10.57;77.49;101291.44;1764925;79;20987;-82
2022/02/09 11:19:20;;;;;;;3.15;1.85;;;;;;;10.57;77.40;101286.17;1766003;80;20989;-82
2022/02/09 11:21:51;;;;;;;2.42;1.60;;;;;;;10.55;77.35;101281.25;1751096;81;21515;-82
2022/02/09 11:24:23;;;;;;;1.82;1.30;;;;;;;10.60;77.55;101277.92;1753363;81;21053;-82
2022/02/09 11:27:04;;;;;;;3.10;1.35;;;;;;;10.76;77.62;101274.51;1763698;81;21782;-82
2022/02/09 11:29:47;;;;;;;2.72;1.60;;;;;;;10.79;77.35;101266.69;1733713;81;21025;-83
2022/02/09 11:32:43;;;;;;;2.20;1.65;;;;;;;10.77;77.29;101273.22;1772746;80;20946;-83
2022/02/09 11:35:20;;;;;;;3.12;1.80;;;;;;;10.80;77.42;101269.81;1707115;83;21184;-83
2022/02/09 11:37:55;;;;;;;2.17;1.70;;;;;;;10.88;77.49;101265.67;1712004;82;21004;-83
2022/02/09 11:40:36;;;;;;;2.50;1.47;;;;;;;10.98;77.58;101266.45;1726377;81;21807;-84
2022/02/09 11:54:55;;;;;;;2.42;1.42;;;;;;;10.98;77.65;101269.48;1716927;83;21721;-83
2022/02/09 11:57:34;;;;;;;1.30;1.20;;;;;;;11.01;77.63;101266.95;1716581;81;21521;-83
2022/02/09 12:11:27;;;;;;;61.80;30.12;;;;;;;11.09;77.67;101252.27;1713978;82;21405;-83
2022/02/09 12:16:48;;;;;;;15.15;8.38;;;;;;;11.26;77.78;101240.53;1688882;82;39877;-83
2022/02/09 12:19:24;;;;;;;16.57;8.35;;;;;;;11.26;77.72;101233.02;1764904;80;20987;-83
2022/02/09 12:22:13;;;;;;;26.80;13.20;;;;;;;11.24;77.64;101238.27;1770783;80;22010;-83
2022/02/09 12:24:36;;;;;;;25.50;10.28;;;;;;;11.20;77.62;101228.46;1756174;80;21570;-83
2022/02/09 12:27:12;;;;;;;65.08;29.67;;;;;;;11.14;77.57;101233.55;1751581;79;21029;-82
2022/02/09 12:29:46;;;;;;;27.00;12.53;;;;;;;11.09;77.61;101232.52;1742630;80;21147;-83
2022/02/09 12:32:27;;;;;;;55.00;27.02;;;;;;;11.06;77.69;101225.42;1733477;81;21017;-82
2022/02/09 12:35:10;;;;;;;36.48;19.30;;;;;;;11.05;77.73;101226.25;1760439;80;21739;-82
2022/02/09 12:37:44;;;;;;;10.63;8.80;;;;;;;11.02;77.75;101221.34;1760470;80;21013;-83
2022/02/09 12:40:19;;;;;;;6.83;5.25;;;;;;;10.99;77.82;101218.60;1759365;80;21026;-82
2022/02/09 12:42:50;;;;;;;19.62;14.50;;;;;;;11.00;77.87;101213.39;1740006;81;21109;-82
2022/02/09 12:45:25;;;;;;;12.43;8.73;;;;;;;10.97;77.86;101222.50;1729280;82;21065;-83
2022/02/09 12:48:00;;;;;;;13.28;9.08;;;;;;;10.96;77.94;101212.83;1729437;81;21731;-83
2022/02/09 12:50:39;;;;;;;15.20;12.25;;;;;;;10.97;78.08;101215.92;1729624;80;21002;-83
2022/02/09 12:53:08;;;;;;;12.75;9.30;;;;;;;11.05;78.21;101213.52;1750572;81;21012;-83
2022/02/09 12:55:34;;;;;;;12.75;8.58;;;;;;;11.13;78.27;101212.42;1749446;80;21130;-82
2022/02/09 12:58:07;;;;;;;24.67;15.83;;;;;;;11.21;78.20;101206.98;1751938;80;21051;-82
2022/02/09 13:00:43;;;;;;;21.17;15.80;;;;;;;11.24;78.19;101202.70;1751209;79;21324;-82
2022/02/09 13:03:18;;;;;;;28.77;21.57;;;;;;;11.38;78.35;101196.50;1746471;81;21431;-82
2022/02/09 13:05:56;;;;;;;12.65;9.15;;;;;;;11.52;78.27;101193.36;1736763;80;20985;-82
2022/02/09 13:08:28;;;;;;;23.83;18.55;;;;;;;11.57;78.05;101187.80;1731407;82;21277;-82
2022/02/09 13:11:21;;;;;;;17.62;12.88;;;;;;;11.55;77.76;101190.39;1740918;82;21456;-82
2022/02/09 13:13:52;;;;;;;13.43;10.03;;;;;;;11.53;77.67;101195.16;1721886;81;22585;-82
2022/02/09 13:16:43;;;;;;;9.13;7.65;;;;;;;11.48;77.64;101189.30;1730731;81;21017;-82
2022/02/09 13:25:05;;;;;;;15.25;11.22;;;;;;;11.39;77.70;101177.22;1744510;81;21034;-83
2022/02/09 14:12:40;;;;;;;3.27;2.60;;;;;;;11.11;76.82;101178.12;1714934;83;20990;-81
2022/02/09 14:47:16;;;;;;;3.55;2.47;;;;;;;10.66;76.74;101183.38;1699190;83;21841;-82
2022/02/09 14:52:37;;;;;;;4.45;2.62;;;;;;;10.60;77.19;101175.27;1781737;79;21045;-83
2022/02/09 14:57:43;;;;;;;3.62;2.87;;;;;;;10.50;77.05;101179.34;1666455;81;20985;-84
2022/02/09 15:00:16;;;;;;;3.42;2.85;;;;;;;10.44;77.13;101181.78;1753084;80;20990;-83
2022/02/09 15:02:51;;;;;;;5.40;3.80;;;;;;;10.40;77.12;101187.80;1750924;80;21756;-84
2022/02/09 15:08:05;;;;;;;4.62;3.40;;;;;;;10.25;77.30;101190.78;1686941;81;20960;-81
2022/02/09 15:10:22;;;;;;;3.85;2.80;;;;;;;10.19;77.41;101189.27;1764300;80;21017;-82
2022/02/09 15:12:56;;;;;;;3.55;2.20;;;;;;;10.14;77.48;101186.02;1736607;81;21107;-81
2022/02/09 15:15:30;;;;;;;3.92;2.72;;;;;;;10.06;77.57;101187.96;1735598;82;21731;-82
2022/02/09 15:18:13;;;;;;;3.33;2.35;;;;;;;10.02;77.69;101191.73;1753633;80;21450;-82
2022/02/09 15:20:42;;;;;;;3.80;2.50;;;;;;;9.95;77.75;101176.18;1765982;80;20972;-82
2022/02/09 15:22:55;;;;;;;3.77;2.20;;;;;;;9.91;77.86;101184.38;1702454;83;21155;-88
2022/02/09 15:25:22;;;;;;;6.33;2.85;;;;;;;9.90;77.97;101177.75;1706151;83;21074;-78
2022/02/09 15:27:57;;;;;;;3.45;2.52;;;;;;;9.86;78.01;101178.06;1700027;84;21790;-83
2022/02/09 15:30:18;;;;;;;4.58;3.25;;;;;;;9.82;77.95;101182.74;1692856;84;21009;-83
2022/02/09 15:32:50;;;;;;;7.42;3.65;;;;;;;9.77;78.04;101180.36;1664090;84;21017;-83
2022/02/09 15:35:23;;;;;;;4.60;2.98;;;;;;;9.70;78.09;101179.27;1693269;84;21042;-84
2022/02/09 15:38:05;;;;;;;3.85;2.47;;;;;;;9.67;78.21;101177.84;1691991;83;21475;-84
2022/02/09 15:40:33;;;;;;;2.47;2.00;;;;;;;9.64;78.25;101181.66;1689956;83;21757;-83
2022/02/09 15:56:25;;;;;;;12.03;6.53;;;;;;;9.46;78.59;101197.68;1691328;84;21060;-84
2022/02/09 16:09:32;;;;;;;48.70;32.63;;;;;;;9.30;78.78;101200.14;1703648;83;20991;-83
2022/02/09 16:23:10;;;;;;;17.62;10.68;;;;;;;9.19;79.07;101205.84;1694099;83;20996;-82
2022/02/09 16:38:51;;;;;;;11.10;6.97;;;;;;;9.03;79.42;101202.63;1697397;82;20959;-84
2022/02/09 16:46:24;;;;;;;19.57;12.55;;;;;;;9.02;79.50;101210.45;1707939;82;21731;-82
2022/02/09 16:49:04;;;;;;;16.82;11.75;;;;;;;9.01;79.52;101208.64;1721789;81;21047;-82
2022/02/09 16:51:30;;;;;;;8.03;6.58;;;;;;;9.01;79.53;101207.33;1721704;81;21024;-84
2022/02/09 16:54:23;;;;;;;5.80;5.15;;;;;;;9.01;79.54;101212.19;1697244;82;21030;-83
2022/02/09 17:18:48;;;;;;;3.92;3.17;;;;;;;8.98;79.68;101205.48;1708418;84;21322;-83
2022/02/09 17:20:56;;;;;;;3.45;3.15;;;;;;;8.97;79.61;101206.73;1708325;83;21464;-83
2022/02/09 17:23:23;;;;;;;4.75;4.35;;;;;;;8.97;79.66;101202.80;1695140;83;21003;-83
2022/02/09 17:25:49;;;;;;;3.98;3.10;;;;;;;8.96;79.63;101204.54;1699342;83;21743;-83
2022/02/09 17:28:17;;;;;;;4.37;2.65;;;;;;;8.96;79.62;101204.54;1769528;80;21506;-83
2022/02/09 17:31:06;;;;;;;4.05;2.42;;;;;;;8.97;79.60;101209.36;1771391;80;21446;-83
2022/02/09 17:36:18;;;;;;;4.83;3.50;;;;;;;8.98;79.57;101209.86;1702144;83;21051;-83
2022/02/09 17:39:04;;;;;;;4.97;3.40;;;;;;;8.99;79.57;101212.94;1718697;81;22659;-82
2022/02/09 17:53:24;;;;;;;2.72;2.50;;;;;;;8.99;79.62;101213.86;1755360;81;21026;-83
2022/02/09 17:55:48;;;;;;;4.90;2.98;;;;;;;8.97;79.81;101213.30;1758115;80;21039;-83
2022/02/09 17:58:05;;;;;;;3.95;2.77;;;;;;;8.95;79.75;101213.23;1776749;80;21019;-83
2022/02/09 18:00:25;;;;;;;3.47;2.83;;;;;;;8.94;79.82;101220.66;1727121;80;21002;-83
2022/02/09 18:02:53;;;;;;;3.52;2.85;;;;;;;8.92;79.82;101221.91;1725554;82;21551;-84
2022/02/09 18:05:35;;;;;;;4.80;3.62;;;;;;;8.93;79.87;101219.77;1716246;82;20964;-83
2022/02/09 18:07:57;;;;;;;5.47;2.80;;;;;;;8.92;79.85;101219.70;1740545;81;21006;-83
2022/02/09 18:10:30;;;;;;;10.20;4.33;;;;;;;8.90;79.86;101220.06;1770991;80;21019;-83
2022/02/09 18:29:27;;;;;;;5.30;3.72;;;;;;;8.79;80.13;101235.80;1724202;81;21065;-83
2022/02/09 18:37:45;;;;;;;3.62;2.83;;;;;;;8.80;80.14;101238.46;1785107;80;20990;-83
2022/02/09 18:40:36;;;;;;;4.33;3.27;;;;;;;8.79;79.87;101246.30;1766148;80;21590;-84
2022/02/09 18:44:37;;;;;;;4.50;2.65;;;;;;;8.79;79.47;101250.24;1763739;81;22000;-83
2022/02/09 19:03:34;;;;;;;10.10;4.53;;;;;;;8.46;78.64;101242.34;1742438;82;21008;-85
2022/02/09 19:06:11;;;;;;;4.50;2.85;;;;;;;8.40;78.73;101249.93;1739482;81;21052;-84
2022/02/09 19:28:45;;;;;;;11.45;6.30;;;;;;;8.40;78.56;101264.36;1710855;82;21017;-84
2022/02/09 19:33:26;;;;;;;8.80;3.80;;;;;;;8.36;78.39;101264.64;1708659;84;21079;-84
2022/02/09 19:48:50;;;;;;;7.95;3.45;;;;;;;8.10;78.43;101256.98;1709088;84;21572;-85
2022/02/09 19:51:35;;;;;;;6.60;2.45;;;;;;;8.04;78.54;101265.89;1733143;81;21738;-85
2022/02/09 19:56:20;;;;;;;8.45;3.15;;;;;;;8.05;78.72;101277.27;1713706;82;20987;-84
2022/02/09 19:58:59;;;;;;;8.43;3.15;;;;;;;8.04;78.66;101279.43;1711264;82;21000;-84
2022/02/09 20:01:26;;;;;;;8.90;3.40;;;;;;;8.03;78.70;101275.89;1702899;82;21015;-84
2022/02/09 20:03:52;;;;;;;6.50;3.22;;;;;;;8.08;78.76;101284.86;1741944;81;21909;-84
2022/02/09 20:06:19;;;;;;;5.30;3.20;;;;;;;8.11;78.73;101283.69;1720515;81;21014;-85
2022/02/09 20:08:48;;;;;;;6.95;3.35;;;;;;;8.17;78.74;101288.31;1730074;81;20953;-85
2022/02/09 20:11:17;;;;;;;5.85;2.42;;;;;;;8.19;78.62;101285.33;1721587;81;21045;-84
2022/02/09 20:13:44;;;;;;;4.97;2.60;;;;;;;8.21;78.44;101288.03;1711264;82;21051;-84
2022/02/09 20:16:11;;;;;;;6.83;3.05;;;;;;;8.23;78.41;101286.36;1735412;81;21941;-85
2022/02/09 20:18:40;;;;;;;6.67;2.80;;;;;;;8.26;78.33;101301.82;1740826;81;21087;-84
2022/02/09 20:21:08;;;;;;;6.47;3.20;;;;;;;8.29;78.34;101299.30;1708319;83;20978;-86
2022/02/09 20:23:35;;;;;;;5.75;2.87;;;;;;;8.30;78.24;101294.55;1745811;81;21342;-86
2022/02/09 20:26:07;;;;;;;6.53;3.60;;;;;;;8.33;78.20;101307.81;1681507;83;21104;-87
2022/02/09 20:28:32;;;;;;;6.95;3.42;;;;;;;8.36;78.14;101313.59;1692366;81;21996;-86
2022/02/09 20:31:05;;;;;;;8.65;3.00;;;;;;;8.38;78.06;101309.31;1710449;82;21045;-87
2022/02/09 20:33:35;;;;;;;8.28;3.10;;;;;;;8.37;77.85;101304.87;1710267;82;21498;-86
2022/02/09 20:35:58;;;;;;;6.45;2.67;;;;;;;8.37;77.68;101311.05;1719095;82;21033;-85
2022/02/09 20:38:28;;;;;;;9.10;2.65;;;;;;;8.37;77.59;101316.68;1718867;82;21535;-87
2022/02/09 20:41:03;;;;;;;6.37;2.25;;;;;;;8.35;77.60;101311.79;1708387;83;21912;-84
2022/02/09 20:43:24;;;;;;;8.40;2.83;;;;;;;8.35;77.54;101315.33;1707873;83;21567;-85
2022/02/09 20:45:55;;;;;;;6.92;2.60;;;;;;;8.36;77.47;101313.59;1710958;82;21046;-85
2022/02/09 20:48:25;;;;;;;11.85;3.35;;;;;;;8.36;77.46;101317.11;1728986;81;21543;-85
2022/02/09 20:50:53;;;;;;;5.92;2.87;;;;;;;8.37;77.37;101322.84;1686254;83;21078;-86
2022/02/09 20:53:21;;;;;;;7.85;2.70;;;;;;;8.37;77.42;101324.55;1707874;82;21652;-86
2022/02/09 20:55:48;;;;;;;5.17;2.33;;;;;;;8.39;77.37;101332.10;1731682;82;20995;-85
2022/02/09 20:58:16;;;;;;;7.95;2.55;;;;;;;8.39;77.29;101325.55;1705853;83;21518;-86
2022/02/09 21:00:56;;;;;;;8.13;2.60;;;;;;;8.39;77.15;101315.05;1699960;83;20987;-85
2022/02/09 21:03:40;;;;;;;7.12;2.35;;;;;;;8.34;76.87;101329.69;1702430;82;21070;-85
2022/02/09 21:08:41;;;;;;;9.83;2.85;;;;;;;8.06;76.60;101330.20;1712020;83;21516;-83
2022/02/09 21:11:08;;;;;;;6.78;2.80;;;;;;;8.00;76.80;101332.14;1708637;82;21035;-83
2022/02/09 21:30:18;;;;;;;4.05;2.52;;;;;;;7.61;76.63;101309.84;1699753;83;21051;-84
2022/02/09 21:32:07;;;;;;;9.80;3.22;;;;;;;7.52;76.64;101314.23;1674350;84;21819;-83
2022/02/09 21:45:10;;;;;;;7.45;3.00;;;;;;;7.19;76.97;101319.70;1741328;80;21680;-83
2022/02/09 21:52:51;;;;;;;10.78;3.60;;;;;;;7.11;77.20;101325.37;1744203;80;21336;-83
2022/02/09 21:57:55;;;;;;;11.15;2.90;;;;;;;7.16;77.33;101333.05;1761651;81;21744;-83
2022/02/09 22:19:43;;;;;;;8.08;2.80;;;;;;;7.53;76.28;101352.72;1745236;80;21044;-83
2022/02/09 22:27:21;;;;;;;7.72;2.85;;;;;;;7.55;76.06;101355.42;1747607;80;21529;-84
2022/02/09 22:30:06;;;;;;;10.38;3.37;;;;;;;7.55;76.04;101350.17;1740854;80;21022;-84
2022/02/09 22:50:55;;;;;;;5.53;2.30;;;;;;;7.09;75.66;101362.37;1745524;80;21804;-81
2022/02/09 22:56:00;;;;;;;8.43;2.17;;;;;;;6.99;75.26;101352.75;1767223;80;21030;-81
2022/02/09 22:58:27;;;;;;;8.23;2.30;;;;;;;6.95;75.33;101361.70;1763309;79;21566;-82
2022/02/09 23:01:01;;;;;;;12.58;2.92;;;;;;;6.95;75.35;101357.77;1753945;80;21001;-82
2022/02/09 23:03:29;;;;;;;8.53;2.27;;;;;;;6.97;75.34;101356.13;1758685;79;23120;-82
2022/02/09 23:06:07;;;;;;;8.43;2.35;;;;;;;6.97;75.22;101362.25;1745910;80;20968;-83
2022/02/09 23:11:44;;;;;;;10.75;2.47;;;;;;;6.97;75.11;101370.52;1749731;80;20992;-83
2022/02/09 23:16:39;;;;;;;8.17;2.70;;;;;;;6.92;74.98;101375.94;1774607;80;21932;-83
2022/02/09 23:54:52;;;;;;;11.12;2.62;;;;;;;6.59;74.79;101403.09;1763304;78;20993;-83